createdAt,value
2022-09-12T00:01:19.989Z,90.90
2022-09-12T00:03:47.001Z,90.90
2022-09-12T00:06:23.477Z,90.90
2022-09-12T00:08:51.743Z,90.90
2022-09-12T00:11:20.067Z,90.90
2022-09-12T00:13:48.240Z,91.00
2022-09-12T00:16:20.927Z,91.00
2022-09-12T00:18:47.865Z,91.10
2022-09-12T00:21:15.740Z,91.10
2022-09-12T00:23:42.528Z,91.10
2022-09-12T00:26:09.561Z,91.10
2022-09-12T00:28:37.118Z,91.10
2022-09-12T00:31:05.933Z,91.40
2022-09-12T00:33:33.591Z,91.10
2022-09-12T00:36:04.670Z,91.10
2022-09-12T00:38:31.697Z,91.10
2022-09-12T00:40:59.843Z,91.10
2022-09-12T00:43:42.128Z,91.10
2022-09-12T00:46:30.587Z,91.10
2022-09-12T00:49:00.639Z,91.00
2022-09-12T00:51:28.433Z,91.10
2022-09-12T00:53:55.196Z,90.80
2022-09-12T00:56:23.963Z,90.80
2022-09-12T00:59:14.030Z,90.80
2022-09-12T01:01:41.210Z,90.90
2022-09-12T01:04:09.758Z,90.60
2022-09-12T01:06:42.942Z,90.60
2022-09-12T01:09:15.045Z,90.60
2022-09-12T01:11:46.079Z,90.50
2022-09-12T01:14:14.803Z,90.50
2022-09-12T01:16:41.589Z,90.50
2022-09-12T01:19:49.420Z,90.50
2022-09-12T01:22:54.948Z,90.60
2022-09-12T01:25:27.641Z,90.50
2022-09-12T01:28:06.727Z,90.30
2022-09-12T01:30:56.977Z,90.40
2022-09-12T01:33:29.929Z,90.40
2022-09-12T01:36:20.894Z,90.40
2022-09-12T01:38:52.908Z,90.40
2022-09-12T01:41:50.141Z,90.40
2022-09-12T01:44:37.706Z,90.40
2022-09-12T01:47:15.679Z,90.40
2022-09-12T01:50:09.449Z,90.40
2022-09-12T01:52:41.558Z,90.40
2022-09-12T01:55:12.860Z,90.30
2022-09-12T01:57:43.165Z,90.30
2022-09-12T02:00:11.414Z,90.30
2022-09-12T02:03:11.772Z,90.30
2022-09-12T02:05:50.480Z,90.30
2022-09-12T02:08:18.028Z,90.20
2022-09-12T02:11:07.538Z,90.30
2022-09-12T02:13:44.840Z,90.10
2022-09-12T02:16:31.873Z,89.90
2022-09-12T02:19:03.863Z,89.70
2022-09-12T02:21:33.045Z,89.50
2022-09-12T02:24:04.699Z,89.30
2022-09-12T02:27:06.686Z,89.20
2022-09-12T02:29:33.495Z,89.20
2022-09-12T02:32:04.424Z,88.90
2022-09-12T02:34:49.448Z,88.90
2022-09-12T02:37:46.066Z,88.90
2022-09-12T02:40:14.660Z,88.90
2022-09-12T02:42:42.567Z,88.80
2022-09-12T02:45:12.394Z,88.80
2022-09-12T02:47:49.769Z,89.00
2022-09-12T02:50:17.684Z,89.00
2022-09-12T02:52:44.506Z,89.10
2022-09-12T02:55:11.679Z,89.20
2022-09-12T02:57:38.468Z,89.20
2022-09-12T03:00:05.812Z,89.30
2022-09-12T03:02:54.648Z,89.40
2022-09-12T03:05:25.615Z,89.50
2022-09-12T03:08:11.364Z,89.30
2022-09-12T03:10:46.996Z,89.30
2022-09-12T03:13:39.369Z,89.20
2022-09-12T03:16:14.431Z,89.20
2022-09-12T03:19:11.958Z,89.10
2022-09-12T03:22:09.549Z,89.20
2022-09-12T03:24:58.888Z,89.30
2022-09-12T03:27:35.211Z,89.10
2022-09-12T03:30:03.675Z,89.30
2022-09-12T03:32:51.400Z,89.30
2022-09-12T03:35:23.042Z,89.50
2022-09-12T03:37:54.644Z,89.50
2022-09-12T03:40:21.772Z,89.60
2022-09-12T03:42:48.503Z,89.70
2022-09-12T03:45:16.580Z,89.80
2022-09-12T03:47:43.478Z,89.80
2022-09-12T03:50:11.877Z,89.90
2022-09-12T03:52:39.844Z,89.80
2022-09-12T03:55:07.473Z,89.70
2022-09-12T03:57:35.822Z,89.70
2022-09-12T04:00:02.988Z,89.70
2022-09-12T04:02:39.329Z,89.60
2022-09-12T04:05:13.592Z,89.50
2022-09-12T04:07:40.344Z,89.40
2022-09-12T04:10:07.485Z,89.40
2022-09-12T04:12:35.548Z,89.50
2022-09-12T04:15:02.413Z,89.60
2022-09-12T04:17:29.189Z,89.70
2022-09-12T04:19:55.933Z,89.90
2022-09-12T04:22:22.743Z,90.00
2022-09-12T04:24:49.488Z,90.00
2022-09-12T04:27:16.242Z,90.10
2022-09-12T04:29:43.068Z,90.20
2022-09-12T04:32:09.904Z,90.50
2022-09-12T04:34:37.173Z,90.30
2022-09-12T04:37:04.066Z,90.40
2022-09-12T04:39:31.009Z,90.40
2022-09-12T04:41:57.789Z,90.50
2022-09-12T04:44:25.924Z,90.60
2022-09-12T04:46:52.805Z,90.60
2022-09-12T04:49:19.594Z,90.70
2022-09-12T04:51:46.668Z,90.70
2022-09-12T04:54:20.137Z,90.70
2022-09-12T04:56:49.273Z,90.80
2022-09-12T04:59:16.986Z,90.90
2022-09-12T05:01:43.807Z,90.90
2022-09-12T05:04:11.235Z,90.90
2022-09-12T05:06:38.573Z,91.00
2022-09-12T05:09:06.749Z,91.00
2022-09-12T05:12:02.777Z,91.00
2022-09-12T05:14:26.643Z,91.00
2022-09-12T05:16:53.537Z,91.10
2022-09-12T05:19:22.544Z,91.10
2022-09-12T05:21:49.276Z,91.20
2022-09-12T05:24:18.361Z,91.50
2022-09-12T05:26:45.101Z,91.30
2022-09-12T05:29:13.089Z,91.30
2022-09-12T05:31:39.875Z,91.30
2022-09-12T05:34:06.925Z,91.30
2022-09-12T05:36:33.939Z,91.30
2022-09-12T05:39:04.118Z,91.30
2022-09-12T05:41:32.857Z,91.30
2022-09-12T05:44:01.379Z,91.30
2022-09-12T05:46:31.805Z,91.30
2022-09-12T05:49:06.566Z,91.40
2022-09-12T05:51:35.325Z,91.40
2022-09-12T05:54:03.421Z,91.40
2022-09-12T05:56:31.920Z,91.50
2022-09-12T05:59:00.245Z,91.60
2022-09-12T06:01:27.369Z,91.60
2022-09-12T06:03:55.967Z,91.60
2022-09-12T06:06:24.372Z,91.60
2022-09-12T06:08:53.187Z,91.70
2022-09-12T06:11:21.621Z,91.70
2022-09-12T06:13:48.484Z,91.70
2022-09-12T06:16:21.742Z,91.70
2022-09-12T06:19:02.965Z,91.80
2022-09-12T06:21:31.273Z,91.80
2022-09-12T06:24:00.978Z,91.70
2022-09-12T06:26:28.410Z,91.70
2022-09-12T06:28:56.235Z,91.60
2022-09-12T06:31:28.710Z,91.50
2022-09-12T06:33:55.641Z,91.40
2022-09-12T06:36:26.768Z,91.30
2022-09-12T06:39:01.472Z,91.20
2022-09-12T06:41:29.172Z,91.00
2022-09-12T06:43:55.977Z,90.70
2022-09-12T06:46:23.010Z,90.50
2022-09-12T06:48:51.189Z,90.40
2022-09-12T06:51:18.747Z,90.20
2022-09-12T06:53:45.913Z,90.10
2022-09-12T06:56:18.461Z,90.00
2022-09-12T06:58:45.444Z,89.70
2022-09-12T07:01:15.499Z,89.40
2022-09-12T07:03:42.608Z,89.20
2022-09-12T07:06:10.994Z,89.00
2022-09-12T07:08:38.420Z,88.70
2022-09-12T07:11:14.914Z,88.40
2022-09-12T07:13:42.471Z,88.00
2022-09-12T07:16:10.286Z,87.80
2022-09-12T07:18:40.820Z,87.70
2022-09-12T07:21:11.622Z,87.40
2022-09-12T07:23:39.972Z,87.10
2022-09-12T07:26:08.964Z,86.90
2022-09-12T07:28:37.644Z,86.70
2022-09-12T07:31:11.494Z,86.50
2022-09-12T07:33:38.883Z,86.20
2022-09-12T07:36:07.382Z,86.10
2022-09-12T07:38:34.629Z,85.90
2022-09-12T07:41:04.712Z,85.50
2022-09-12T07:43:31.868Z,85.30
2022-09-12T07:45:59.726Z,85.10
2022-09-12T07:48:28.443Z,85.00
2022-09-12T07:51:02.292Z,84.90
2022-09-12T07:53:36.985Z,84.60
2022-09-12T07:56:05.453Z,84.30
2022-09-12T07:58:33.068Z,84.00
2022-09-12T08:01:14.024Z,83.70
2022-09-12T08:03:41.554Z,84.00
2022-09-12T08:06:15.673Z,83.40
2022-09-12T08:08:43.154Z,83.00
2022-09-12T08:11:12.192Z,82.70
2022-09-12T08:13:39.614Z,82.40
2022-09-12T08:16:32.009Z,82.30
2022-09-12T08:19:00.448Z,82.00
2022-09-12T08:21:31.552Z,82.00
2022-09-12T08:24:03.656Z,82.00
2022-09-12T08:26:30.890Z,81.90
2022-09-12T08:28:57.659Z,81.80
2022-09-12T08:31:25.914Z,81.70
2022-09-12T08:33:54.599Z,81.50
2022-09-12T08:36:23.080Z,81.20
2022-09-12T08:38:51.460Z,81.40
2022-09-12T08:41:18.235Z,80.50
2022-09-12T08:43:54.654Z,80.10
2022-09-12T08:46:28.608Z,79.80
2022-09-12T08:48:55.779Z,79.50
2022-09-12T08:51:22.880Z,79.20
2022-09-12T08:53:50.311Z,78.80
2022-09-12T08:56:17.530Z,78.80
2022-09-12T08:58:44.995Z,78.90
2022-09-12T09:01:22.273Z,78.70
2022-09-12T09:03:55.242Z,78.40
2022-09-12T09:06:41.546Z,78.20
2022-09-12T09:09:17.485Z,78.60
2022-09-12T09:11:57.200Z,78.00
2022-09-12T09:14:48.157Z,77.90
2022-09-12T09:17:18.279Z,77.50
2022-09-12T09:19:51.030Z,76.80
2022-09-12T09:22:36.217Z,76.10
2022-09-12T09:25:11.451Z,75.80
2022-09-12T09:27:44.007Z,75.50
2022-09-12T09:30:18.778Z,74.70
2022-09-12T09:32:49.560Z,74.10
2022-09-12T09:35:19.408Z,73.60
2022-09-12T09:38:30.984Z,73.60
2022-09-12T09:41:16.630Z,72.70
2022-09-12T09:43:43.483Z,72.40
2022-09-12T09:46:11.772Z,72.30
2022-09-12T09:48:41.838Z,72.20
2022-09-12T09:51:09.337Z,72.30
2022-09-12T09:53:48.971Z,72.50
2022-09-12T09:56:21.516Z,72.50
2022-09-12T09:58:50.032Z,72.70
2022-09-12T10:01:17.295Z,73.20
2022-09-12T10:03:54.349Z,72.50
2022-09-12T10:06:21.140Z,72.40
2022-09-12T10:08:48.550Z,72.50
2022-09-12T10:11:15.308Z,72.40
2022-09-12T10:13:52.992Z,72.30
2022-09-12T10:16:24.824Z,71.80
2022-09-12T10:18:52.438Z,71.70
2022-09-12T10:21:41.319Z,71.40
2022-09-12T10:24:22.969Z,70.70
2022-09-12T10:26:57.605Z,69.80
2022-09-12T10:29:32.445Z,70.00
2022-09-12T10:32:07.960Z,69.80
2022-09-12T10:34:36.790Z,68.90
2022-09-12T10:37:15.604Z,68.50
2022-09-12T10:39:42.674Z,67.50
2022-09-12T10:42:13.428Z,66.80
2022-09-12T10:44:40.397Z,65.90
2022-09-12T10:47:21.102Z,65.60
2022-09-12T10:49:47.940Z,64.90
2022-09-12T10:52:23.167Z,64.50
2022-09-12T10:54:53.257Z,63.50
2022-09-12T10:57:32.210Z,63.10
2022-09-12T11:00:17.089Z,62.50
2022-09-12T11:03:05.625Z,62.30
2022-09-12T11:05:41.664Z,61.90
2022-09-12T11:08:33.502Z,61.60
2022-09-12T11:11:23.504Z,61.60
2022-09-12T11:14:08.793Z,61.40
2022-09-12T11:16:44.332Z,61.00
2022-09-12T11:19:19.291Z,60.40
2022-09-12T11:22:02.046Z,60.20
2022-09-12T11:24:37.808Z,60.00
2022-09-12T11:27:38.606Z,60.10
2022-09-12T11:30:09.405Z,59.70
2022-09-12T11:32:48.261Z,58.90
2022-09-12T11:35:19.642Z,57.40
2022-09-12T11:38:24.343Z,56.10
2022-09-12T11:40:55.935Z,55.60
2022-09-12T11:43:44.050Z,55.10
2022-09-12T11:46:30.026Z,54.90
2022-09-12T11:49:04.545Z,54.80
2022-09-12T11:51:57.417Z,55.00
2022-09-12T11:54:45.100Z,54.80
2022-09-12T11:57:16.114Z,54.90
2022-09-12T11:59:57.751Z,54.50
2022-09-12T12:02:29.953Z,54.30
2022-09-12T12:05:20.762Z,54.90
2022-09-12T12:07:55.904Z,54.40
2022-09-12T12:10:40.371Z,54.70
2022-09-12T12:13:18.071Z,55.10
2022-09-12T12:15:50.016Z,55.30
2022-09-12T12:18:27.166Z,55.70
2022-09-12T12:20:54.439Z,55.80
2022-09-12T12:23:29.195Z,54.10
2022-09-12T12:25:56.664Z,52.60
2022-09-12T12:28:52.961Z,51.30
2022-09-12T12:31:19.760Z,49.70
2022-09-12T12:33:46.594Z,48.40
2022-09-12T12:36:38.490Z,47.00
2022-09-12T12:39:48.274Z,45.40
2022-09-12T12:42:36.011Z,44.30
2022-09-12T12:45:06.588Z,43.40
2022-09-12T12:47:36.552Z,42.60
2022-09-12T12:50:28.660Z,41.60
2022-09-12T12:52:55.428Z,41.60
2022-09-12T12:55:44.390Z,41.90
2022-09-12T12:58:39.618Z,41.00
2022-09-12T13:01:20.720Z,40.50
2022-09-12T13:03:54.878Z,39.20
2022-09-12T13:06:34.095Z,37.90
2022-09-12T13:09:09.062Z,38.10
2022-09-12T13:11:37.469Z,37.90
2022-09-12T13:14:06.912Z,38.20
2022-09-12T13:16:35.352Z,37.40
2022-09-12T13:19:07.184Z,36.60
2022-09-12T13:21:35.593Z,35.80
2022-09-12T13:24:13.550Z,35.20
2022-09-12T13:26:46.065Z,34.50
2022-09-12T13:29:16.103Z,34.00
2022-09-12T13:31:47.214Z,34.30
2022-09-12T13:34:20.238Z,33.90
2022-09-12T13:36:55.815Z,33.50
2022-09-12T13:39:34.371Z,33.10
2022-09-12T13:42:08.300Z,32.70
2022-09-12T13:45:07.175Z,32.50
2022-09-12T13:47:36.777Z,32.50
2022-09-12T13:50:05.060Z,32.20
2022-09-12T13:52:33.804Z,32.00
2022-09-12T13:55:01.101Z,32.60
2022-09-12T13:57:38.717Z,32.20
2022-09-12T14:00:20.162Z,32.50
2022-09-12T14:02:47.740Z,32.30
2022-09-12T14:05:22.660Z,33.20
2022-09-12T14:10:27.097Z,34.80
2022-09-12T14:12:57.264Z,35.70
2022-09-12T14:15:28.907Z,36.80
2022-09-12T14:18:01.623Z,36.30
2022-09-12T14:20:32.535Z,36.40
2022-09-12T14:23:05.105Z,36.70
2022-09-12T14:25:38.323Z,37.50
2022-09-12T14:28:06.131Z,38.60
2022-09-12T14:30:37.281Z,39.40
2022-09-12T14:33:05.511Z,39.60
2022-09-12T14:35:33.184Z,39.60
2022-09-12T14:38:11.857Z,39.50
2022-09-12T14:41:02.632Z,39.60
2022-09-12T14:43:31.122Z,39.50
2022-09-12T14:46:08.381Z,39.40
2022-09-12T14:48:36.858Z,39.30
2022-09-12T14:51:04.098Z,39.10
2022-09-12T14:53:32.754Z,38.90
2022-09-12T14:56:12.634Z,38.90
2022-09-12T14:58:43.839Z,38.50
2022-09-12T15:01:10.691Z,38.10
2022-09-12T15:03:49.481Z,38.30
2022-09-12T15:06:33.013Z,38.80
2022-09-12T15:09:02.141Z,39.80
2022-09-12T15:11:29.266Z,40.70
2022-09-12T15:13:56.115Z,41.40
2022-09-12T15:16:22.976Z,42.10
2022-09-12T15:18:49.885Z,42.90
2022-09-12T15:21:18.917Z,43.80
2022-09-12T15:23:49.665Z,44.90
2022-09-12T15:26:23.650Z,45.30
2022-09-12T15:28:51.845Z,45.40
2022-09-12T15:31:23.065Z,45.70
2022-09-12T15:33:49.896Z,46.10
2022-09-12T15:36:18.709Z,46.90
2022-09-12T15:38:45.658Z,47.10
2022-09-12T15:41:15.303Z,47.60
2022-09-12T15:43:42.142Z,48.50
2022-09-12T15:46:13.154Z,48.50
2022-09-12T15:48:40.268Z,49.20
2022-09-12T15:51:18.412Z,49.40
2022-09-12T15:53:45.767Z,49.90
2022-09-12T15:56:13.489Z,50.10
2022-09-12T15:58:54.628Z,50.40
2022-09-12T16:01:24.391Z,50.60
2022-09-12T16:03:51.307Z,50.80
2022-09-12T16:06:18.042Z,50.90
2022-09-12T16:08:44.958Z,51.20
2022-09-12T16:11:23.382Z,52.00
2022-09-12T16:13:51.784Z,51.80
2022-09-12T16:16:18.565Z,52.00
2022-09-12T16:18:45.492Z,52.10
2022-09-12T16:21:15.281Z,52.20
2022-09-12T16:23:43.770Z,52.30
2022-09-12T16:26:10.946Z,52.00
2022-09-12T16:28:37.914Z,51.90
2022-09-12T16:31:05.748Z,51.50
2022-09-12T16:33:32.673Z,51.20
2022-09-12T16:36:07.528Z,50.90
2022-09-12T16:38:35.797Z,50.70
2022-09-12T16:41:05.163Z,50.20
2022-09-12T16:43:33.257Z,49.00
2022-09-12T16:46:11.823Z,47.50
2022-09-12T16:48:42.536Z,46.20
2022-09-12T16:51:10.452Z,45.30
2022-09-12T16:53:38.251Z,44.60
2022-09-12T16:56:06.515Z,44.30
2022-09-12T16:58:41.735Z,44.10
2022-09-12T17:01:17.154Z,44.40
2022-09-12T17:03:44.201Z,45.10
2022-09-12T17:06:16.597Z,46.00
2022-09-12T17:08:45.106Z,46.70
2022-09-12T17:11:16.643Z,47.50
2022-09-12T17:14:04.018Z,48.50
2022-09-12T17:16:35.568Z,49.40
2022-09-12T17:19:02.499Z,50.30
2022-09-12T17:21:29.308Z,50.90
2022-09-12T17:23:56.098Z,51.60
2022-09-12T17:26:22.925Z,52.60
2022-09-12T17:28:49.712Z,53.60
2022-09-12T17:31:17.230Z,53.40
2022-09-12T17:33:44.085Z,53.90
2022-09-12T17:36:13.251Z,54.30
2022-09-12T17:38:42.431Z,54.70
2022-09-12T17:41:18.025Z,55.10
2022-09-12T17:43:46.478Z,55.50
2022-09-12T17:46:13.479Z,55.80
2022-09-12T17:48:40.340Z,56.20
2022-09-12T17:51:15.430Z,56.60
2022-09-12T17:53:43.422Z,57.10
2022-09-12T17:56:10.714Z,57.30
2022-09-12T17:58:37.679Z,57.60
2022-09-12T18:01:28.610Z,58.10
2022-09-12T18:03:56.830Z,58.60
2022-09-12T18:06:24.524Z,58.80
2022-09-12T18:08:51.778Z,59.10
2022-09-12T18:11:18.627Z,59.30
2022-09-12T18:13:45.540Z,59.60
2022-09-12T18:16:14.781Z,60.00
2022-09-12T18:18:42.091Z,60.20
2022-09-12T18:21:12.596Z,60.50
2022-09-12T18:23:41.109Z,60.80
2022-09-12T18:26:09.606Z,60.90
2022-09-12T18:28:38.264Z,61.10
2022-09-12T18:31:05.408Z,61.20
2022-09-12T18:33:33.040Z,61.50
2022-09-12T18:36:07.283Z,61.80
2022-09-12T18:38:34.142Z,62.30
2022-09-12T18:41:11.654Z,62.30
2022-09-12T18:43:45.323Z,62.70
2022-09-12T18:46:16.455Z,63.00
2022-09-12T18:48:44.641Z,63.10
2022-09-12T18:51:14.594Z,63.30
2022-09-12T18:53:42.798Z,63.40
2022-09-12T18:56:13.426Z,63.30
2022-09-12T18:58:44.456Z,63.20
2022-09-12T19:01:19.218Z,63.00
2022-09-12T19:03:46.917Z,63.00
2022-09-12T19:06:17.659Z,63.50
2022-09-12T19:08:45.108Z,63.00
2022-09-12T19:11:11.951Z,63.00
2022-09-12T19:13:40.460Z,63.10
2022-09-12T19:16:12.676Z,63.20
2022-09-12T19:18:39.898Z,63.30
2022-09-12T19:21:09.311Z,63.40
2022-09-12T19:23:41.737Z,63.80
2022-09-12T19:26:11.118Z,63.90
2022-09-12T19:28:39.439Z,63.90
2022-09-12T19:31:07.450Z,63.90
2022-09-12T19:33:35.276Z,63.90
2022-09-12T19:36:04.521Z,64.10
2022-09-12T19:38:35.002Z,64.50
2022-09-12T19:41:03.888Z,64.60
2022-09-12T19:43:32.200Z,64.50
2022-09-12T19:46:02.555Z,64.80
2022-09-12T19:48:29.703Z,65.00
2022-09-12T19:51:01.593Z,65.10
2022-09-12T19:53:29.497Z,65.50
2022-09-12T19:56:00.926Z,65.70
2022-09-12T19:58:31.378Z,66.30
2022-09-12T20:01:18.265Z,66.70
2022-09-12T20:03:53.012Z,67.80
2022-09-12T20:06:24.004Z,68.20
2022-09-12T20:08:54.201Z,69.50
2022-09-12T20:11:23.662Z,69.60
2022-09-12T20:13:54.778Z,70.10
2022-09-12T20:16:25.088Z,70.50
2022-09-12T20:18:54.613Z,71.10
2022-09-12T20:21:25.558Z,71.10
2022-09-12T20:23:56.104Z,71.40
2022-09-12T20:26:33.494Z,71.80
2022-09-12T20:29:01.962Z,72.30
2022-09-12T20:37:08.873Z,73.60
2022-09-12T20:39:43.072Z,73.70
2022-09-12T20:42:11.232Z,74.10
2022-09-12T20:44:39.244Z,74.40
2022-09-12T20:47:06.151Z,75.20
2022-09-12T20:49:32.921Z,75.00
2022-09-12T20:51:59.944Z,75.30
2022-09-12T20:54:28.536Z,75.50
2022-09-12T20:57:00.530Z,75.80
2022-09-12T20:59:27.298Z,76.20
2022-09-12T21:01:54.182Z,76.20
2022-09-12T21:04:21.150Z,76.40
2022-09-12T21:06:50.302Z,76.50
2022-09-12T21:09:17.105Z,76.40
2022-09-12T21:11:43.923Z,76.30
2022-09-12T21:14:10.928Z,76.20
2022-09-12T21:16:41.618Z,76.50
2022-09-12T21:19:08.518Z,76.70
2022-09-12T21:21:35.329Z,76.80
2022-09-12T21:24:02.916Z,77.60
2022-09-12T21:26:32.890Z,77.40
2022-09-12T21:28:59.718Z,77.70
2022-09-12T21:31:26.992Z,77.80
2022-09-12T21:33:57.093Z,77.80
2022-09-12T21:36:24.925Z,78.00
2022-09-12T21:38:51.697Z,78.20
2022-09-12T21:41:18.520Z,78.40
2022-09-12T21:43:47.821Z,78.70
2022-09-12T21:46:14.860Z,79.40
2022-09-12T21:48:42.472Z,79.10
2022-09-12T21:51:09.428Z,79.30
2022-09-12T21:53:36.637Z,79.50
2022-09-12T21:56:07.614Z,79.70
2022-09-12T21:58:34.865Z,79.90
2022-09-12T22:01:02.785Z,80.10
2022-09-12T22:03:29.663Z,80.20
2022-09-12T22:05:57.760Z,80.30
2022-09-12T22:08:24.604Z,80.40
2022-09-12T22:10:51.445Z,80.50
2022-09-12T22:13:18.246Z,80.60
2022-09-12T22:15:49.782Z,81.30
2022-09-12T22:18:16.684Z,81.00
2022-09-12T22:20:43.465Z,81.20
2022-09-12T22:23:31.057Z,81.00
2022-09-12T22:25:57.831Z,80.90
2022-09-12T22:28:25.050Z,80.80
2022-09-12T22:30:54.328Z,80.90
2022-09-12T22:33:21.267Z,80.80
2022-09-12T22:35:48.618Z,80.80
2022-09-12T22:38:15.509Z,81.00
2022-09-12T22:40:42.854Z,81.00
2022-09-12T22:43:10.289Z,81.20
2022-09-12T22:45:41.405Z,81.30
2022-09-12T22:48:09.641Z,81.40
2022-09-12T22:50:38.687Z,81.30
2022-09-12T22:53:05.488Z,81.30
2022-09-12T22:55:32.274Z,81.30
2022-09-12T22:57:59.579Z,81.40
2022-09-12T23:00:29.752Z,81.60
2022-09-12T23:02:56.916Z,82.30
2022-09-12T23:05:23.735Z,82.40
2022-09-12T23:07:50.985Z,82.10
2022-09-12T23:10:17.896Z,82.40
2022-09-12T23:12:44.662Z,82.60
2022-09-12T23:15:11.381Z,82.80
2022-09-12T23:17:38.159Z,83.00
2022-09-12T23:20:05.527Z,83.10
2022-09-12T23:22:32.299Z,83.30
2022-09-12T23:24:59.118Z,83.40
2022-09-12T23:27:27.707Z,83.50
2022-09-12T23:29:54.597Z,83.60
2022-09-12T23:32:21.561Z,83.70
2022-09-12T23:34:49.774Z,83.80
2022-09-12T23:37:16.541Z,83.90
2022-09-12T23:39:43.363Z,84.00
2022-09-12T23:42:10.132Z,84.60
2022-09-12T23:44:36.915Z,84.10
2022-09-12T23:47:03.879Z,84.10
2022-09-12T23:49:34.316Z,84.20
2022-09-12T23:52:02.574Z,84.40
2022-09-12T23:54:29.389Z,84.40
2022-09-12T23:56:57.237Z,84.50
2022-09-12T23:59:24.018Z,84.40
